Tabellarische Übersicht vom Donnerstag, den 27.02.2020

Oder anderes Datum wählen:






max 5,3°C 92,0% 2,6°C 1005,4hPa 5,0°C 0,0km/h (0Bft) 0,0km/h 0° (N) ∑0,9l/m² 19,000klx ∑124,7min
min 2,5°C 79,0% 1,3°C 993,8hPa 3,0°C 0,0km/h (0Bft) 0,0km/h 0° (N) ∑0,9l/m² 0,000klx ∑124,7min
Ø 3,5°C 89,0% 1,8°C 1001,6hPa 4,0°C 0,0km/h (0Bft) 0,0km/h 0° (N) ∑0,9l/m² 10,000klx ∑124,7min
Zeit Temperatur Luftfeuchte Taupunkt Luftdruck Windchill Windböen Windgeschwindigkeit Windrichtung Regen Helligkeit Regenzeit
14:55 3,9°C 89,8% 2,3°C 993,8hPa 3,9°C 0,0km/h (0Bft) 0,0km/h 0,0l/m² 6,694klx 5,0min
14:50 3,8°C 89,9% 2,3°C 993,9hPa 3,8°C 0,0km/h (0Bft) 0,0km/h 0,0l/m² 7,269klx 5,0min
14:45 3,8°C 90,2% 2,3°C 993,9hPa 3,8°C 0,0km/h (0Bft) 0,0km/h 0,0l/m² 7,548klx 5,0min
14:40 3,8°C 90,1% 2,3°C 993,9hPa 3,8°C 0,0km/h (0Bft) 0,0km/h 0,0l/m² 8,156klx 5,0min
14:35 3,8°C 90,0% 2,3°C 993,9hPa 3,8°C 0,0km/h (0Bft) 0,0km/h 0,0l/m² 9,175klx 5,0min
14:30 3,9°C 90,0% 2,4°C 994,0hPa 3,9°C 0,0km/h (0Bft) 0,0km/h 0,0l/m² 9,155klx 5,0min
14:25 3,9°C 89,9% 2,4°C 994,1hPa 3,9°C 0,0km/h (0Bft) 0,0km/h 0,0l/m² 10,384klx 5,0min
14:20 3,9°C 90,0% 2,4°C 994,1hPa 3,9°C 0,0km/h (0Bft) 0,0km/h 0,0l/m² 10,108klx 5,0min
14:15 3,9°C 89,8% 2,4°C 994,3hPa 3,9°C 0,0km/h (0Bft) 0,0km/h 0,0l/m² 9,762klx 5,0min
14:10 3,8°C 89,6% 2,3°C 994,4hPa 3,8°C 0,0km/h (0Bft) 0,0km/h 0,0l/m² 10,988klx 5,0min
14:05 3,8°C 89,7% 2,3°C 994,5hPa 3,8°C 0,0km/h (0Bft) 0,0km/h 0,0l/m² 11,189klx 5,0min
14:00 3,9°C 89,9% 2,4°C 994,7hPa 3,9°C 0,0km/h (0Bft) 0,0km/h 0,1l/m² 11,042klx 5,0min
13:55 3,9°C 89,9% 2,4°C 994,8hPa 3,9°C 0,0km/h (0Bft) 0,0km/h 0,0l/m² 11,577klx 5,0min
13:50 4,0°C 89,8% 2,4°C 994,9hPa 4,0°C 0,0km/h (0Bft) 0,0km/h 0,0l/m² 9,887klx 5,0min
13:45 4,0°C 89,4% 2,4°C 995,1hPa 4,0°C 0,0km/h (0Bft) 0,0km/h 0,1l/m² 10,003klx 5,0min
13:40 4,1°C 89,3% 2,5°C 995,3hPa 4,1°C 0,0km/h (0Bft) 0,0km/h 0,0l/m² 11,149klx 5,0min
13:35 4,1°C 88,9% 2,5°C 995,4hPa 4,1°C 0,0km/h (0Bft) 0,0km/h 0,1l/m² 10,843klx 5,0min
13:30 4,2°C 88,5% 2,4°C 995,5hPa 4,2°C 0,0km/h (0Bft) 0,0km/h 0,0l/m² 10,895klx 5,0min
13:25 4,4°C 88,4% 2,6°C 995,7hPa 4,4°C 0,0km/h (0Bft) 0,0km/h 0,0l/m² 10,688klx 5,0min
13:20 4,4°C 86,8% 2,4°C 995,8hPa 4,4°C 0,0km/h (0Bft) 0,0km/h 0,0l/m² 9,629klx 5,0min
13:15 4,6°C 85,9% 2,5°C 996,0hPa 4,6°C 0,0km/h (0Bft) 0,0km/h 0,0l/m² 12,278klx 2,0min
13:10 4,7°C 85,1% 2,4°C 996,1hPa 4,7°C 0,0km/h (0Bft) 0,0km/h 0,0l/m² 13,990klx 0,0min
13:05 4,7°C 83,9% 2,2°C 996,3hPa 4,7°C 0,0km/h (0Bft) 0,0km/h 0,0l/m² 14,249klx 0,0min
13:00 4,9°C 82,9% 2,2°C 996,4hPa 4,9°C 0,0km/h (0Bft) 0,0km/h 0,0l/m² 13,756klx 0,0min
12:55 5,1°C 81,4% 2,2°C 996,5hPa 5,1°C 0,0km/h (0Bft) 0,0km/h 0,0l/m² 13,970klx 0,0min
12:50 5,3°C 81,5% 2,4°C 996,5hPa 5,3°C 0,0km/h (0Bft) 0,0km/h 0,0l/m² 15,053klx 0,0min
12:45 5,3°C 80,0% 2,1°C 996,7hPa 5,3°C 0,0km/h (0Bft) 0,0km/h 0,0l/m² 14,904klx 0,0min
12:40 5,3°C 79,6% 2,1°C 996,8hPa 5,3°C 0,0km/h (0Bft) 0,0km/h 0,0l/m² 15,674klx 0,0min
12:35 5,3°C 79,5% 2,0°C 996,9hPa 5,3°C 0,0km/h (0Bft) 0,0km/h 0,0l/m² 17,256klx 0,0min
12:30 5,3°C 79,9% 2,1°C 997,0hPa 5,3°C 0,0km/h (0Bft) 0,0km/h 0,0l/m² 16,099klx 0,0min
12:25 5,2°C 80,1% 2,1°C 997,2hPa 5,2°C 0,0km/h (0Bft) 0,0km/h 0,0l/m² 15,575klx 0,0min
12:20 5,2°C 80,3% 2,1°C 997,3hPa 5,2°C 0,0km/h (0Bft) 0,0km/h 0,0l/m² 14,912klx 0,0min
12:15 5,2°C 80,4% 2,1°C 997,4hPa 5,2°C 0,0km/h (0Bft) 0,0km/h 0,0l/m² 13,724klx 0,0min
12:10 5,2°C 80,1% 2,1°C 997,5hPa 5,2°C 0,0km/h (0Bft) 0,0km/h 0,0l/m² 14,315klx 0,0min
12:05 5,3°C 80,7% 2,2°C 997,7hPa 5,3°C 0,0km/h (0Bft) 0,0km/h 0,0l/m² 15,167klx 0,0min
12:00 5,2°C 80,4% 2,1°C 997,8hPa 5,2°C 0,0km/h (0Bft) 0,0km/h 0,0l/m² 14,909klx 0,0min
11:55 5,2°C 80,5% 2,1°C 997,9hPa 5,2°C 0,0km/h (0Bft) 0,0km/h 0,0l/m² 14,769klx 0,0min
11:50 5,2°C 80,8% 2,2°C 998,0hPa 5,2°C 0,0km/h (0Bft) 0,0km/h 0,0l/m² 15,290klx 0,0min
11:45 5,2°C 82,0% 2,4°C 998,1hPa 5,2°C 0,0km/h (0Bft) 0,0km/h 0,0l/m² 16,410klx 0,0min
11:40 5,1°C 81,4% 2,2°C 998,2hPa 5,1°C 0,0km/h (0Bft) 0,0km/h 0,0l/m² 17,665klx 0,0min
11:35 5,1°C 82,0% 2,3°C 998,2hPa 5,1°C 0,0km/h (0Bft) 0,0km/h 0,0l/m² 17,801klx 0,0min
11:30 5,0°C 82,7% 2,3°C 998,4hPa 5,0°C 0,0km/h (0Bft) 0,0km/h 0,0l/m² 17,785klx 0,0min
11:25 4,9°C 83,3% 2,3°C 998,5hPa 4,9°C 0,0km/h (0Bft) 0,0km/h 0,0l/m² 17,080klx 0,0min
11:20 4,8°C 83,5% 2,2°C 998,7hPa 4,8°C 0,0km/h (0Bft) 0,0km/h 0,0l/m² 17,245klx 0,0min
11:15 4,7°C 84,5% 2,3°C 998,8hPa 4,7°C 0,0km/h (0Bft) 0,0km/h 0,0l/m² 16,852klx 0,0min
11:10 4,6°C 84,7% 2,3°C 998,9hPa 4,6°C 0,0km/h (0Bft) 0,0km/h 0,0l/m² 17,862klx 0,0min
11:05 4,6°C 84,8% 2,2°C 999,1hPa 4,6°C 0,0km/h (0Bft) 0,0km/h 0,0l/m² 17,014klx 0,0min
11:00 4,5°C 85,1% 2,2°C 999,2hPa 4,5°C 0,0km/h (0Bft) 0,0km/h 0,0l/m² 19,141klx 0,0min
10:55 4,4°C 86,0% 2,2°C 999,4hPa 4,4°C 0,0km/h (0Bft) 0,0km/h 0,0l/m² 18,537klx 0,0min
10:50 4,2°C 86,3% 2,1°C 999,5hPa 4,2°C 0,0km/h (0Bft) 0,0km/h 0,0l/m² 16,088klx 0,0min
10:45 4,2°C 86,8% 2,2°C 999,6hPa 4,2°C 0,0km/h (0Bft) 0,0km/h 0,0l/m² 14,901klx 0,0min
10:40 4,1°C 87,0% 2,2°C 999,8hPa 4,1°C 0,0km/h (0Bft) 0,0km/h 0,0l/m² 14,488klx 0,0min
10:35 4,1°C 87,1% 2,2°C 999,9hPa 4,1°C 0,0km/h (0Bft) 0,0km/h 0,0l/m² 13,636klx 0,0min
10:30 4,1°C 87,2% 2,1°C 1000,0hPa 4,1°C 0,0km/h (0Bft) 0,0km/h 0,0l/m² 13,623klx 0,0min
10:25 4,1°C 87,0% 2,1°C 1000,1hPa 4,1°C 0,0km/h (0Bft) 0,0km/h 0,0l/m² 10,050klx 3,3min
10:20 4,3°C 84,8% 1,9°C 1000,2hPa 4,3°C 0,0km/h (0Bft) 0,0km/h 0,0l/m² 8,711klx 4,1min
10:15 4,4°C 83,6% 1,9°C 1000,2hPa 4,4°C 0,0km/h (0Bft) 0,0km/h 0,0l/m² 15,632klx 0,0min
10:10 4,4°C 83,9% 1,9°C 1000,3hPa 4,4°C 0,0km/h (0Bft) 0,0km/h 0,0l/m² 17,816klx 0,0min
10:05 4,3°C 84,3% 1,9°C 1000,4hPa 4,3°C 0,0km/h (0Bft) 0,0km/h 0,0l/m² 14,385klx 0,0min
10:00 4,3°C 84,6% 1,9°C 1000,5hPa 4,3°C 0,0km/h (0Bft) 0,0km/h 0,0l/m² 13,659klx 0,0min
09:55 4,2°C 84,6% 1,8°C 1000,6hPa 4,2°C 0,0km/h (0Bft) 0,0km/h 0,0l/m² 13,432klx 0,0min
09:50 4,1°C 84,3% 1,7°C 1000,7hPa 4,1°C 0,0km/h (0Bft) 0,0km/h 0,0l/m² 13,003klx 0,0min
09:45 4,1°C 85,1% 1,8°C 1000,7hPa 4,1°C 0,0km/h (0Bft) 0,0km/h 0,0l/m² 12,036klx 0,0min
09:40 4,0°C 85,5% 1,8°C 1000,9hPa 4,0°C 0,0km/h (0Bft) 0,0km/h 0,0l/m² 11,804klx 0,0min
09:35 4,0°C 86,1% 1,9°C 1001,0hPa 4,0°C 0,0km/h (0Bft) 0,0km/h 0,0l/m² 12,057klx 0,0min
09:30 3,9°C 86,5% 1,8°C 1001,1hPa 3,9°C 0,0km/h (0Bft) 0,0km/h 0,0l/m² 11,260klx 0,0min
09:25 3,8°C 87,1% 1,9°C 1001,2hPa 3,8°C 0,0km/h (0Bft) 0,0km/h 0,0l/m² 9,751klx 0,0min
09:20 3,8°C 87,6% 1,9°C 1001,3hPa 3,8°C 0,0km/h (0Bft) 0,0km/h 0,0l/m² 8,718klx 0,0min
09:15 3,8°C 87,7% 1,9°C 1001,4hPa 3,8°C 0,0km/h (0Bft) 0,0km/h 0,0l/m² 8,290klx 0,0min
09:10 3,8°C 87,7% 1,9°C 1001,5hPa 3,8°C 0,0km/h (0Bft) 0,0km/h 0,0l/m² 8,412klx 0,0min
09:05 3,7°C 87,8% 1,9°C 1001,5hPa 3,7°C 0,0km/h (0Bft) 0,0km/h 0,0l/m² 8,147klx 0,0min
09:00 3,7°C 87,6% 1,9°C 1001,6hPa 3,7°C 0,0km/h (0Bft) 0,0km/h 0,0l/m² 7,531klx 0,0min
08:55 3,7°C 87,8% 1,8°C 1001,6hPa 3,7°C 0,0km/h (0Bft) 0,0km/h 0,0l/m² 6,872klx 0,0min
08:50 3,6°C 88,4% 1,8°C 1001,8hPa 3,6°C 0,0km/h (0Bft) 0,0km/h 0,0l/m² 6,546klx 0,0min
08:45 3,6°C 88,1% 1,8°C 1001,9hPa 3,6°C 0,0km/h (0Bft) 0,0km/h 0,0l/m² 5,924klx 0,0min
08:40 3,6°C 87,9% 1,7°C 1001,9hPa 3,6°C 0,0km/h (0Bft) 0,0km/h 0,0l/m² 5,350klx 0,0min
08:35 3,5°C 88,4% 1,7°C 1001,9hPa 3,5°C 0,0km/h (0Bft) 0,0km/h 0,0l/m² 5,274klx 0,0min
08:30 3,4°C 88,6% 1,7°C 1002,0hPa 3,4°C 0,0km/h (0Bft) 0,0km/h 0,0l/m² 4,885klx 0,0min
08:25 3,3°C 89,1% 1,7°C 1002,0hPa 3,3°C 0,0km/h (0Bft) 0,0km/h 0,0l/m² 4,607klx 0,0min
08:20 3,2°C 89,5% 1,6°C 1002,1hPa 3,2°C 0,0km/h (0Bft) 0,0km/h 0,0l/m² 4,329klx 0,0min
08:15 3,1°C 89,6% 1,6°C 1002,1hPa 3,1°C 0,0km/h (0Bft) 0,0km/h 0,0l/m² 4,151klx 0,0min
08:10 3,1°C 89,6% 1,5°C 1002,1hPa 3,1°C 0,0km/h (0Bft) 0,0km/h 0,0l/m² 3,634klx 0,0min
08:05 3,0°C 90,0% 1,5°C 1002,2hPa 3,0°C 0,0km/h (0Bft) 0,0km/h 0,0l/m² 3,045klx 0,0min
08:00 2,9°C 90,0% 1,4°C 1002,3hPa 2,9°C 0,0km/h (0Bft) 0,0km/h 0,0l/m² 2,679klx 0,0min
07:55 2,9°C 90,1% 1,4°C 1002,4hPa 2,9°C 0,0km/h (0Bft) 0,0km/h 0,0l/m² 2,229klx 0,0min
07:50 2,8°C 90,3% 1,4°C 1002,5hPa 2,8°C 0,0km/h (0Bft) 0,0km/h 0,0l/m² 1,758klx 0,0min
07:45 2,8°C 90,4% 1,3°C 1002,6hPa 2,8°C 0,0km/h (0Bft) 0,0km/h 0,0l/m² 1,426klx 0,0min
07:40 2,7°C 90,5% 1,3°C 1002,6hPa 2,7°C 0,0km/h (0Bft) 0,0km/h 0,0l/m² 1,067klx 0,0min
07:35 2,7°C 90,7% 1,3°C 1002,6hPa 2,7°C 0,0km/h (0Bft) 0,0km/h 0,0l/m² 0,731klx 0,0min
07:30 2,7°C 90,7% 1,3°C 1002,7hPa 2,7°C 0,0km/h (0Bft) 0,0km/h 0,0l/m² 0,493klx 0,0min
07:25 2,7°C 90,7% 1,3°C 1002,7hPa 2,7°C 0,0km/h (0Bft) 0,0km/h 0,0l/m² 0,320klx 0,0min
07:20 2,7°C 90,6% 1,3°C 1002,7hPa 2,7°C 0,0km/h (0Bft) 0,0km/h 0,0l/m² 0,198klx 0,0min
07:15 2,7°C 90,7% 1,3°C 1002,8hPa 2,7°C 0,0km/h (0Bft) 0,0km/h 0,0l/m² 0,105klx 0,0min
07:10 2,7°C 90,6% 1,3°C 1002,8hPa 2,7°C 0,0km/h (0Bft) 0,0km/h 0,0l/m² 0,051klx 0,0min
07:05 2,8°C 90,5% 1,4°C 1002,9hPa 2,8°C 0,0km/h (0Bft) 0,0km/h 0,0l/m² 0,022klx 0,0min
07:00 2,7°C 90,7% 1,3°C 1003,0hPa 2,7°C 0,0km/h (0Bft) 0,0km/h 0,0l/m² 0,009klx 0,0min
06:55 2,7°C 90,8% 1,4°C 1003,1hPa 2,7°C 0,0km/h (0Bft) 0,0km/h 0,0l/m² 0,004klx 0,0min
06:50 2,7°C 90,8% 1,3°C 1003,2hPa 2,7°C 0,0km/h (0Bft) 0,0km/h 0,0l/m² 0,001klx 0,0min
06:45 2,7°C 90,9% 1,4°C 1003,3hPa 2,7°C 0,0km/h (0Bft) 0,0km/h 0,0l/m² 0,001klx 0,0min
06:40 2,7°C 91,0% 1,4°C 1003,3hPa 2,7°C 0,0km/h (0Bft) 0,0km/h 0,0l/m² 0,000klx 0,0min
06:35 2,6°C 91,1% 1,3°C 1003,4hPa 2,6°C 0,0km/h (0Bft) 0,0km/h 0,0l/m² 0,000klx 0,0min
06:30 2,7°C 91,1% 1,4°C 1003,5hPa 2,7°C 0,0km/h (0Bft) 0,0km/h 0,0l/m² 0,000klx 0,0min
06:25 2,7°C 91,0% 1,4°C 1003,5hPa 2,7°C 0,0km/h (0Bft) 0,0km/h 0,0l/m² 0,000klx 0,0min
06:20 2,7°C 91,1% 1,4°C 1003,7hPa 2,7°C 0,0km/h (0Bft) 0,0km/h 0,0l/m² 0,000klx 0,0min
06:15 2,7°C 91,1% 1,4°C 1003,8hPa 2,7°C 0,0km/h (0Bft) 0,0km/h 0,0l/m² 0,000klx 0,0min
06:10 2,7°C 91,0% 1,4°C 1003,8hPa 2,7°C 0,0km/h (0Bft) 0,0km/h 0,0l/m² 0,000klx 0,0min
06:05 2,7°C 91,1% 1,4°C 1003,8hPa 2,7°C 0,0km/h (0Bft) 0,0km/h 0,0l/m² 0,000klx 0,0min
06:00 2,7°C 91,1% 1,4°C 1003,9hPa 2,7°C 0,0km/h (0Bft) 0,0km/h 0,0l/m² 0,000klx 0,0min
05:55 2,7°C 91,1% 1,4°C 1003,9hPa 2,7°C 0,0km/h (0Bft) 0,0km/h 0,0l/m² 0,000klx 0,0min
05:50 2,8°C 91,0% 1,4°C 1004,0hPa 2,8°C 0,0km/h (0Bft) 0,0km/h 0,0l/m² 0,000klx 0,0min
05:45 2,8°C 91,0% 1,5°C 1004,0hPa 2,8°C 0,0km/h (0Bft) 0,0km/h 0,0l/m² 0,000klx 0,0min
05:40 2,8°C 91,0% 1,5°C 1004,1hPa 2,8°C 0,0km/h (0Bft) 0,0km/h 0,0l/m² 0,000klx 0,0min
05:35 2,8°C 91,1% 1,5°C 1004,2hPa 2,8°C 0,0km/h (0Bft) 0,0km/h 0,0l/m² 0,000klx 0,0min
05:30 2,9°C 91,0% 1,5°C 1004,2hPa 2,9°C 0,0km/h (0Bft) 0,0km/h 0,0l/m² 0,000klx 0,0min
05:25 2,8°C 91,1% 1,5°C 1004,3hPa 2,8°C 0,0km/h (0Bft) 0,0km/h 0,0l/m² 0,000klx 0,0min
05:20 2,9°C 91,0% 1,5°C 1004,3hPa 2,9°C 0,0km/h (0Bft) 0,0km/h 0,0l/m² 0,000klx 0,0min
05:15 2,9°C 91,0% 1,6°C 1004,4hPa 2,9°C 0,0km/h (0Bft) 0,0km/h 0,0l/m² 0,000klx 0,0min
05:10 2,9°C 91,0% 1,6°C 1004,4hPa 2,9°C 0,0km/h (0Bft) 0,0km/h 0,0l/m² 0,000klx 0,0min
05:05 3,0°C 91,0% 1,6°C 1004,4hPa 3,0°C 0,0km/h (0Bft) 0,0km/h 0,0l/m² 0,000klx 0,0min
05:00 3,0°C 91,0% 1,7°C 1004,5hPa 3,0°C 0,0km/h (0Bft) 0,0km/h 0,0l/m² 0,000klx 0,0min
04:55 3,0°C 91,0% 1,7°C 1004,4hPa 3,0°C 0,0km/h (0Bft) 0,0km/h 0,0l/m² 0,000klx 0,0min
04:50 3,1°C 91,0% 1,7°C 1004,5hPa 3,1°C 0,0km/h (0Bft) 0,0km/h 0,0l/m² 0,000klx 0,0min
04:45 3,1°C 90,9% 1,8°C 1004,5hPa 3,1°C 0,0km/h (0Bft) 0,0km/h 0,0l/m² 0,000klx 0,0min
04:40 3,1°C 91,0% 1,8°C 1004,6hPa 3,1°C 0,0km/h (0Bft) 0,0km/h 0,0l/m² 0,000klx 0,0min
04:35 3,1°C 91,1% 1,8°C 1004,6hPa 3,1°C 0,0km/h (0Bft) 0,0km/h 0,0l/m² 0,000klx 0,0min
04:30 3,1°C 91,1% 1,7°C 1004,6hPa 3,1°C 0,0km/h (0Bft) 0,0km/h 0,0l/m² 0,000klx 0,0min
04:25 3,1°C 91,0% 1,7°C 1004,6hPa 3,1°C 0,0km/h (0Bft) 0,0km/h 0,0l/m² 0,000klx 0,0min
04:20 3,1°C 91,0% 1,8°C 1004,7hPa 3,1°C 0,0km/h (0Bft) 0,0km/h 0,0l/m² 0,000klx 0,0min
04:15 3,2°C 90,8% 1,8°C 1004,7hPa 3,2°C 0,0km/h (0Bft) 0,0km/h 0,0l/m² 0,000klx 0,0min
04:10 3,2°C 90,9% 1,9°C 1004,7hPa 3,2°C 0,0km/h (0Bft) 0,0km/h 0,1l/m² 0,000klx 3,0min
04:05 3,3°C 91,1% 2,0°C 1004,7hPa 3,3°C 0,0km/h (0Bft) 0,0km/h 0,0l/m² 0,000klx 1,1min
04:00 3,3°C 91,0% 2,0°C 1004,7hPa 3,3°C 0,0km/h (0Bft) 0,0km/h 0,0l/m² 0,000klx 0,0min
03:55 3,2°C 91,0% 1,9°C 1004,7hPa 3,2°C 0,0km/h (0Bft) 0,0km/h 0,0l/m² 0,000klx 0,0min
03:50 3,3°C 91,0% 1,9°C 1004,7hPa 3,3°C 0,0km/h (0Bft) 0,0km/h 0,0l/m² 0,000klx 0,0min
03:45 3,2°C 91,1% 1,9°C 1004,8hPa 3,2°C 0,0km/h (0Bft) 0,0km/h 0,0l/m² 0,000klx 0,0min
03:40 3,2°C 91,1% 1,9°C 1004,8hPa 3,2°C 0,0km/h (0Bft) 0,0km/h 0,0l/m² 0,000klx 0,0min
03:35 3,2°C 91,1% 1,9°C 1004,8hPa 3,2°C 0,0km/h (0Bft) 0,0km/h 0,0l/m² 0,000klx 0,0min
03:30 3,1°C 91,1% 1,8°C 1004,9hPa 3,1°C 0,0km/h (0Bft) 0,0km/h 0,0l/m² 0,000klx 0,0min
03:25 3,2°C 91,0% 1,9°C 1004,9hPa 3,2°C 0,0km/h (0Bft) 0,0km/h 0,0l/m² 0,000klx 0,0min
03:20 3,3°C 91,0% 2,0°C 1005,0hPa 3,3°C 0,0km/h (0Bft) 0,0km/h 0,0l/m² 0,000klx 0,0min
03:15 3,3°C 91,0% 2,0°C 1005,0hPa 3,3°C 0,0km/h (0Bft) 0,0km/h 0,0l/m² 0,000klx 0,0min
03:10 3,3°C 91,1% 1,9°C 1005,0hPa 3,3°C 0,0km/h (0Bft) 0,0km/h 0,0l/m² 0,000klx 0,0min
03:05 3,2°C 91,1% 1,9°C 1005,0hPa 3,2°C 0,0km/h (0Bft) 0,0km/h 0,0l/m² 0,000klx 0,0min
03:00 3,2°C 91,3% 1,9°C 1005,1hPa 3,2°C 0,0km/h (0Bft) 0,0km/h 0,0l/m² 0,000klx 0,0min
02:55 3,2°C 91,2% 1,9°C 1005,1hPa 3,2°C 0,0km/h (0Bft) 0,0km/h 0,0l/m² 0,000klx 0,0min
02:50 3,2°C 91,3% 1,9°C 1005,1hPa 3,2°C 0,0km/h (0Bft) 0,0km/h 0,0l/m² 0,000klx 0,0min
02:45 3,2°C 91,4% 1,9°C 1005,1hPa 3,2°C 0,0km/h (0Bft) 0,0km/h 0,0l/m² 0,000klx 0,0min
02:40 3,1°C 91,5% 1,9°C 1005,2hPa 3,1°C 0,0km/h (0Bft) 0,0km/h 0,0l/m² 0,000klx 0,0min
02:35 3,1°C 91,5% 1,8°C 1005,2hPa 3,1°C 0,0km/h (0Bft) 0,0km/h 0,0l/m² 0,000klx 0,0min
02:30 3,1°C 91,6% 1,8°C 1005,3hPa 3,1°C 0,0km/h (0Bft) 0,0km/h 0,0l/m² 0,000klx 0,0min
02:25 3,1°C 91,5% 1,8°C 1005,3hPa 3,1°C 0,0km/h (0Bft) 0,0km/h 0,0l/m² 0,000klx 0,0min
02:20 3,0°C 91,3% 1,7°C 1005,3hPa 3,0°C 0,0km/h (0Bft) 0,0km/h 0,0l/m² 0,000klx 0,0min
02:15 3,0°C 91,3% 1,7°C 1005,2hPa 3,0°C 0,0km/h (0Bft) 0,0km/h 0,0l/m² 0,000klx 0,0min
02:10 3,0°C 91,3% 1,7°C 1005,3hPa 3,0°C 0,0km/h (0Bft) 0,0km/h 0,0l/m² 0,000klx 0,9min
02:05 3,0°C 91,2% 1,7°C 1005,3hPa 3,0°C 0,0km/h (0Bft) 0,0km/h 0,0l/m² 0,000klx 5,0min
02:00 3,0°C 91,2% 1,7°C 1005,3hPa 3,0°C 0,0km/h (0Bft) 0,0km/h 0,0l/m² 0,000klx 4,3min
01:55 2,9°C 91,2% 1,6°C 1005,3hPa 2,9°C 0,0km/h (0Bft) 0,0km/h 0,0l/m² 0,000klx 0,0min
01:50 2,9°C 91,1% 1,5°C 1005,3hPa 2,9°C 0,0km/h (0Bft) 0,0km/h 0,0l/m² 0,000klx 0,0min
01:45 2,9°C 91,2% 1,6°C 1005,3hPa 2,9°C 0,0km/h (0Bft) 0,0km/h 0,0l/m² 0,000klx 0,0min
01:40 2,7°C 91,3% 1,5°C 1005,4hPa 2,7°C 0,0km/h (0Bft) 0,0km/h 0,0l/m² 0,000klx 0,0min
01:35 2,6°C 91,3% 1,3°C 1005,4hPa 2,6°C 0,0km/h (0Bft) 0,0km/h 0,0l/m² 0,000klx 0,0min
01:30 2,6°C 91,3% 1,3°C 1005,3hPa 2,6°C 0,0km/h (0Bft) 0,0km/h 0,0l/m² 0,000klx 0,0min
01:25 2,6°C 91,3% 1,3°C 1005,3hPa 2,6°C 0,0km/h (0Bft) 0,0km/h 0,0l/m² 0,000klx 0,0min
01:20 2,5°C 91,3% 1,3°C 1005,3hPa 2,5°C 0,0km/h (0Bft) 0,0km/h 0,0l/m² 0,000klx 0,0min
01:15 2,5°C 91,2% 1,3°C 1005,3hPa 2,5°C 0,0km/h (0Bft) 0,0km/h 0,0l/m² 0,000klx 0,0min
01:10 2,6°C 91,2% 1,3°C 1005,2hPa 2,6°C 0,0km/h (0Bft) 0,0km/h 0,0l/m² 0,000klx 0,0min
01:05 2,8°C 91,0% 1,5°C 1005,2hPa 2,8°C 0,0km/h (0Bft) 0,0km/h 0,0l/m² 0,000klx 0,0min
01:00 3,1°C 91,0% 1,7°C 1005,2hPa 3,1°C 0,0km/h (0Bft) 0,0km/h 0,0l/m² 0,000klx 0,0min
00:55 3,2°C 90,8% 1,9°C 1005,2hPa 3,2°C 0,0km/h (0Bft) 0,0km/h 0,0l/m² 0,000klx 0,0min
00:50 3,2°C 90,9% 1,9°C 1005,2hPa 3,2°C 0,0km/h (0Bft) 0,0km/h 0,0l/m² 0,000klx 0,6min
00:45 3,2°C 91,1% 1,8°C 1005,2hPa 3,2°C 0,0km/h (0Bft) 0,0km/h 0,0l/m² 0,000klx 0,3min
00:40 3,1°C 91,1% 1,8°C 1005,2hPa 3,1°C 0,0km/h (0Bft) 0,0km/h 0,0l/m² 0,000klx 0,0min
00:35 3,0°C 91,1% 1,7°C 1005,2hPa 3,0°C 0,0km/h (0Bft) 0,0km/h 0,0l/m² 0,000klx 0,0min
00:30 3,0°C 91,2% 1,7°C 1005,2hPa 3,0°C 0,0km/h (0Bft) 0,0km/h 0,0l/m² 0,000klx 0,0min
00:25 3,0°C 91,2% 1,7°C 1005,2hPa 3,0°C 0,0km/h (0Bft) 0,0km/h 0,0l/m² 0,000klx 0,0min
00:20 2,9°C 91,3% 1,7°C 1005,2hPa 2,9°C 0,0km/h (0Bft) 0,0km/h 0,0l/m² 0,000klx 0,0min
00:15 2,9°C 91,3% 1,6°C 1005,2hPa 2,9°C 0,0km/h (0Bft) 0,0km/h 0,0l/m² 0,000klx 0,0min
00:10 2,9°C 91,3% 1,6°C 1005,2hPa 2,9°C 0,0km/h (0Bft) 0,0km/h 0,0l/m² 0,000klx 0,0min
00:05 2,9°C 91,3% 1,6°C 1005,2hPa 2,9°C 0,0km/h (0Bft) 0,0km/h 0,0l/m² 0,000klx 0,0min
00:00 2,8°C 91,3% 1,6°C 1005,1hPa 2,8°C 0,0km/h (0Bft) 0,0km/h 0,0l/m² 0,000klx 0,0min

Aktuelle Wetterdaten

27.02.2020 14:55 Uhr